Aurillac Airport

LFLW · Auvergne-Rhône-Alpes, France

5 octobre 2022

Temps Code Temps Temp. Vue Base cloud Vent METAR/SPECI
04:30
V
9 °C 10 km+ - 130° 130° 1 kt METAR LFSL 050230Z AUTO 13001KT CAVOK 09/08 Q1022
04:00
V
9 °C 10 km+ - 130° 130° 1 kt METAR LFSL 050200Z AUTO 13001KT CAVOK 09/08 Q1022
03:30
V
9 °C 10 km+ - Var 000° 0 kt METAR LFSL 050130Z AUTO 00000KT CAVOK 09/09 Q1022
03:00
V
9 °C 10 km+ - Var 000° 0 kt METAR LFSL 050100Z AUTO 00000KT CAVOK 09/08 Q1022
02:30
V
9 °C 10 km+ - Var 000° 0 kt METAR LFSL 050030Z AUTO 00000KT CAVOK 09/08 Q1022
02:00
V
9 °C 10 km+ - Var 000° 0 kt METAR LFSL 050000Z AUTO 00000KT CAVOK 09/08 Q1022
01:30
V
10 °C 10 km+ - Var 000° 0 kt METAR LFSL 042330Z AUTO 00000KT CAVOK 10/09 Q1023
01:00
V
9 °C 10 km+ - Var 000° 0 kt METAR LFSL 042300Z AUTO 00000KT CAVOK 09/08 Q1023
00:30
V
10 °C 10 km+ - Var 000° 0 kt METAR LFSL 042230Z AUTO 00000KT CAVOK 10/09 Q1023
00:00
V
10 °C 10 km+ - Var 000° 0 kt METAR LFSL 042200Z AUTO 00000KT CAVOK 10/09 Q1023

4 octobre 2022

Temps Code Temps Temp. Vue Base cloud Vent METAR/SPECI
23:30
V
11 °C 10 km+ - Var 000° 0 kt METAR LFSL 042130Z AUTO 00000KT CAVOK 11/09 Q1023
23:00
V
11 °C 10 km+ - Var 000° 0 kt METAR LFSL 042100Z AUTO 00000KT CAVOK 11/10 Q1023
22:30
V
11 °C 10 km+ - Var 000° 0 kt METAR LFSL 042030Z AUTO 00000KT CAVOK 11/10 Q1023 NOSIG
22:00
V
12 °C 10 km+ - 120° 120° 1 kt METAR LFSL 042000Z AUTO 12001KT CAVOK 12/11 Q1023 NOSIG
21:30
V
13 °C 10 km+ - Var 000° 0 kt METAR LFSL 041930Z AUTO 00000KT CAVOK 13/11 Q1022 NOSIG
21:00
V
14 °C 10 km+ - Var 000° 0 kt METAR LFSL 041900Z AUTO 00000KT CAVOK 14/12 Q1022 NOSIG
20:30
V
15 °C 10 km+ - Var 000° 0 kt METAR LFSL 041830Z AUTO 00000KT CAVOK 15/12 Q1022 NOSIG
20:00
V
17 °C 10 km+ - 300° 300° 3 kt METAR LFSL 041800Z AUTO 30003KT CAVOK 17/12 Q1022 NOSIG
19:30
V
18 °C 10 km+ - 280° 280° 4 kt METAR LFSL 041730Z AUTO 28004KT CAVOK 18/13 Q1022 NOSIG
19:00
V
20 °C 10 km+ - Var Var 1 kt METAR LFSL 041700Z AUTO VRB01KT CAVOK 20/12 Q1021 NOSIG
18:30
V
22 °C 10 km+ - Var Var 3 kt METAR LFSL 041630Z AUTO VRB03KT CAVOK 22/11 Q1021 NOSIG
18:00
V
23 °C 10 km+ - Var Var 2 kt METAR LFSL 041600Z AUTO VRB02KT CAVOK 23/11 Q1021 NOSIG
17:30
V
23 °C 10 km+ - Var Var 2 kt METAR LFSL 041530Z AUTO VRB02KT CAVOK 23/10 Q1021 NOSIG
17:00
V
23 °C 10 km+ - Var Var 3 kt METAR LFSL 041500Z AUTO VRB03KT CAVOK 23/11 Q1021 NOSIG
16:30
V
24 °C 10 km+ - 220° 220° 4 kt METAR LFSL 041430Z AUTO 22004KT 140V290 CAVOK 24/12 Q1021 NOSIG
16:00
V
23 °C 10 km+ - Var Var 4 kt METAR LFSL 041400Z AUTO VRB04KT CAVOK 23/11 Q1021 NOSIG
15:30
V
22 °C 10 km+ - Var Var 3 kt METAR LFSL 041330Z AUTO VRB03KT CAVOK 22/12 Q1021 NOSIG
15:00
V
22 °C 10 km+ - 170° 170° 3 kt METAR LFSL 041300Z AUTO 17003KT 090V250 CAVOK 22/12 Q1021 NOSIG
14:30
V
22 °C 10 km+ - Var Var 3 kt METAR LFSL 041230Z AUTO VRB03KT CAVOK 22/12 Q1021 NOSIG
14:00
V
22 °C 10 km+ - 170° 170° 5 kt METAR LFSL 041200Z AUTO 17005KT 130V240 CAVOK 22/12 Q1022 NOSIG
13:30
V
21 °C 10 km+ - Var Var 4 kt METAR LFSL 041130Z AUTO VRB04KT CAVOK 21/12 Q1022 NOSIG
13:00
V
20 °C 10 km+ - Var Var 3 kt METAR LFSL 041100Z AUTO VRB03KT CAVOK 20/12 Q1022 NOSIG
12:30
V
19 °C 10 km+ - Var Var 3 kt METAR LFSL 041030Z AUTO VRB03KT CAVOK 19/13 Q1022 NOSIG
12:00
V
18 °C 10 km+ - Var Var 2 kt METAR LFSL 041000Z AUTO VRB02KT CAVOK 18/12 Q1022 NOSIG
11:30
V
17 °C 10 km+ - Var Var 3 kt METAR LFSL 040930Z AUTO VRB03KT CAVOK 17/12 Q1022 NOSIG
11:00
V
16 °C 10 km+ - 120° 120° 3 kt METAR LFSL 040900Z AUTO 12003KT 090V190 CAVOK 16/12 Q1022 NOSIG
10:30
V
14 °C 10 km+ - 110° 110° 5 kt METAR LFSL 040830Z AUTO 11005KT CAVOK 14/11 Q1022 NOSIG
10:00
V
13 °C 10 km+ - 130° 130° 4 kt METAR LFSL 040800Z AUTO 13004KT 100V180 CAVOK 13/11 Q1022 NOSIG
09:30
V
12 °C 10 km+ - 120° 120° 3 kt METAR LFSL 040730Z AUTO 12003KT CAVOK 12/11 Q1021 NOSIG
09:00
V
10 °C 10 km+ - 120° 120° 2 kt METAR LFSL 040700Z AUTO 12002KT CAVOK 10/09 Q1021 NOSIG
08:30
L
8 °C 2,2 km - 120° 120° 2 kt METAR LFSL 040630Z AUTO 12002KT 2200 BR VV/// 08/08 Q1021 BECMG CAVOK
08:00
L
7 °C 10 km+ - 120° 120° 2 kt METAR LFSL 040600Z AUTO 12002KT 9999 VV/// 07/07 Q1021 TEMPO 0800 FG BECMG NSC
07:30
V
7 °C 10 km+ - 120° 120° 2 kt METAR LFSL 040530Z AUTO 12002KT CAVOK 07/07 Q1021 TEMPO 0800 FG VV///
07:00
V
8 °C 10 km+ - 130° 130° 2 kt METAR LFSL 040500Z AUTO 13002KT CAVOK 08/07 Q1021 TEMPO 0800 FG VV///
06:30
L
8 °C 10 km+ - 120° 120° 2 kt METAR LFSL 040430Z AUTO 12002KT 9999 VV/// 08/07 Q1020 TEMPO 0800 FG
06:00
L
8 °C 1,3 km - 120° 120° 2 kt METAR LFSL 040400Z AUTO 12002KT 9999 1300 R29/1800D VV/// 08/07 Q1020 TEMPO 0800 FG
05:30
L
8 °C 10 km+ - Var 000° 0 kt METAR LFSL 040330Z AUTO 00000KT 9999 VV/// 08/07 Q1020 TEMPO 0800 FG
05:00
L
8 °C 3,2 km - Var 000° 0 kt METAR LFSL 040300Z AUTO 00000KT 9999 3200 VV/// 08/07 Q1020 TEMPO 0800 FG
04:30
L
8 °C 10 km+ - Var 000° 0 kt METAR LFSL 040230Z AUTO 00000KT 9999 VV/// 08/07 Q1020
04:00
V
8 °C 10 km+ - Var 000° 0 kt METAR LFSL 040200Z AUTO 00000KT CAVOK 08/08 Q1021
03:30
V
8 °C 10 km+ - Var 000° 0 kt METAR LFSL 040130Z AUTO 00000KT CAVOK 08/08 Q1021
03:00
V
9 °C 10 km+ - Var 000° 0 kt METAR LFSL 040100Z AUTO 00000KT CAVOK 09/08 Q1021
02:30
V
9 °C 10 km+ - Var 000° 0 kt METAR LFSL 040030Z AUTO 00000KT CAVOK 09/08 Q1021
02:00
V
9 °C 10 km+ - Var 000° 0 kt METAR LFSL 040000Z AUTO 00000KT CAVOK 09/08 Q1021
01:30
V
9 °C 10 km+ - 200° 200° 1 kt METAR LFSL 032330Z AUTO 20001KT CAVOK 09/09 Q1021
01:00
V
10 °C 10 km+ - Var 000° 0 kt METAR LFSL 032300Z AUTO 00000KT CAVOK 10/09 Q1021
00:30
V
10 °C 10 km+ - Var 000° 0 kt METAR LFSL 032230Z AUTO 00000KT CAVOK 10/09 Q1021
00:00
V
11 °C 10 km+ - Var 000° 0 kt METAR LFSL 032200Z AUTO 00000KT CAVOK 11/10 Q1022

3 octobre 2022

Temps Code Temps Temp. Vue Base cloud Vent METAR/SPECI
23:30
V
11 °C 10 km+ - Var 000° 0 kt METAR LFSL 032130Z AUTO 00000KT CAVOK 11/10 Q1022
23:00
V
11 °C 10 km+ - Var 000° 0 kt METAR LFSL 032100Z AUTO 00000KT CAVOK 11/11 Q1022
22:30
V
12 °C 10 km+ - Var 000° 0 kt METAR LFSL 032030Z AUTO 00000KT CAVOK 12/11 Q1021
22:00
V
12 °C 10 km+ - Var 000° 0 kt METAR LFSL 032000Z AUTO 00000KT CAVOK 12/11 Q1021 NOSIG
21:30
V
13 °C 10 km+ - Var 000° 0 kt METAR LFSL 031930Z AUTO 00000KT CAVOK 13/11 Q1021 NOSIG
21:00
V
14 °C 10 km+ - Var 000° 0 kt METAR LFSL 031900Z AUTO 00000KT CAVOK 14/12 Q1021 NOSIG
20:30
V
15 °C 10 km+ - Var 000° 0 kt METAR LFSL 031830Z AUTO 00000KT CAVOK 15/12 Q1021 NOSIG
20:00
V
17 °C 10 km+ - Var 000° 0 kt METAR LFSL 031800Z AUTO 00000KT CAVOK 17/13 Q1021 NOSIG
19:30
V
20 °C 10 km+ - Var 000° 0 kt METAR LFSL 031730Z AUTO 00000KT CAVOK 20/13 Q1021 NOSIG
19:00
V
21 °C 10 km+ - 010° 010° 3 kt METAR LFSL 031700Z AUTO 01003KT 330V040 CAVOK 21/12 Q1021 NOSIG
18:30
V
22 °C 10 km+ - 010° 010° 4 kt METAR LFSL 031630Z AUTO 01004KT 330V040 CAVOK 22/12 Q1021 NOSIG
18:00
V
22 °C 10 km+ - 330° 330° 5 kt METAR LFSL 031600Z AUTO 33005KT 280V020 CAVOK 22/12 Q1021 NOSIG
17:30
V
23 °C 10 km+ - 070° 070° 3 kt METAR LFSL 031530Z AUTO 07003KT 360V140 CAVOK 23/12 Q1022 NOSIG
17:00
V
22 °C 10 km+ 4.400 ft 330° 330° 4 kt METAR LFSL 031500Z AUTO 33004KT 290V360 9999 BKN044 22/12 Q1022 NOSIG
16:30
V
22 °C 10 km+ - Var Var 4 kt METAR LFSL 031430Z AUTO VRB04KT 9999 FEW042 22/12 Q1022 NOSIG
16:00
V
22 °C 10 km+ 3.900 ft 010° 010° 4 kt METAR LFSL 031400Z AUTO 01004KT 310V110 9999 BKN039 22/12 Q1022 NOSIG
15:30
V
22 °C 10 km+ - 350° 350° 7 kt METAR LFSL 031330Z AUTO 35007KT 310V020 9999 SCT039 22/13 Q1023 NOSIG
15:00
V
22 °C 10 km+ - 350° 350° 8 kt METAR LFSL 031300Z AUTO 35008KT 310V040 9999 FEW040 22/12 Q1023 NOSIG
14:30
V
21 °C 10 km+ - 030° 030° 6 kt METAR LFSL 031230Z AUTO 03006KT 340V110 9999 FEW035 21/11 Q1023 NOSIG
14:00
V
21 °C 10 km+ - 040° 040° 4 kt METAR LFSL 031200Z AUTO 04004KT 310V100 CAVOK 21/12 Q1023 NOSIG
13:30
V
20 °C 10 km+ - 350° 350° 4 kt METAR LFSL 031130Z AUTO 35004KT 280V050 CAVOK 20/12 Q1024 NOSIG
13:00
V
20 °C 10 km+ - Var Var 3 kt METAR LFSL 031100Z AUTO VRB03KT CAVOK 20/12 Q1024 NOSIG
12:30
V
19 °C 10 km+ - Var Var 3 kt METAR LFSL 031030Z AUTO VRB03KT CAVOK 19/12 Q1024 NOSIG
12:00
V
19 °C 10 km+ - 040° 040° 3 kt METAR LFSL 031000Z AUTO 04003KT 310V120 CAVOK 19/12 Q1024 NOSIG
11:30
V
18 °C 10 km+ - 360° 360° 4 kt METAR LFSL 030930Z AUTO 36004KT 320V030 CAVOK 18/12 Q1024 NOSIG
11:00
V
17 °C 10 km+ - 330° 330° 4 kt METAR LFSL 030900Z AUTO 33004KT 280V010 CAVOK 17/12 Q1025 NOSIG
10:30
V
16 °C 10 km+ - Var Var 3 kt METAR LFSL 030830Z AUTO VRB03KT CAVOK 16/13 Q1025 NOSIG
10:00
V
14 °C 10 km+ - Var Var 2 kt METAR LFSL 030800Z AUTO VRB02KT CAVOK 14/13 Q1025 NOSIG
09:30
V
13 °C 10 km+ - Var Var 2 kt METAR LFSL 030730Z AUTO VRB02KT CAVOK 13/13 Q1025 NOSIG
09:00
V
11 °C 10 km+ - Var 000° 0 kt METAR LFSL 030700Z AUTO 00000KT CAVOK 11/10 Q1024 TEMPO 0600 FG VV///
08:30
V
10 °C 10 km+ - Var 000° 0 kt METAR LFSL 030630Z AUTO 00000KT CAVOK 10/09 Q1024 TEMPO 0600 FG VV///
08:00
V
10 °C 10 km+ - Var 000° 0 kt METAR LFSL 030600Z AUTO 00000KT CAVOK 10/09 Q1024 NOSIG
07:30
L
10 °C 700 m - Var 000° 0 kt METAR LFSL 030530Z AUTO 00000KT 0800 0700 R29/1400U FG VV/// 10/09 Q1024 BECMG 9999 NSW BKN040
07:00
L
11 °C 1,3 km - Var Var 1 kt METAR LFSL 030500Z AUTO VRB01KT 1800 1300 R29/1700D BR VV/// 11/10 Q1024 BECMG 9999 NSW BKN040
06:30
V
12 °C 10 km+ - Var Var 2 kt METAR LFSL 030430Z AUTO VRB02KT 9999 FEW001 12/11 Q1024 NOSIG
06:00
V
13 °C 10 km+ 3.700 ft Var 000° 0 kt METAR LFSL 030400Z AUTO 00000KT 9999 BKN037 13/12 Q1024 TEMPO 3000 BR
05:30
V
13 °C 10 km+ 3.700 ft 310° 310° 1 kt METAR LFSL 030330Z AUTO 31001KT 9999 OVC037 13/13 Q1025 TEMPO 3000 BR
05:00
V
13 °C 10 km+ 3.700 ft Var Var 2 kt METAR LFSL 030300Z AUTO VRB02KT 9999 OVC037 13/13 Q1025 TEMPO 3000 BR
04:30
V
13 °C 10 km+ 3.900 ft Var Var 2 kt METAR LFSL 030230Z AUTO VRB02KT 9999 BKN039 13/12 Q1025
04:00
V
14 °C 10 km+ 4.000 ft 350° 350° 3 kt METAR LFSL 030200Z AUTO 35003KT 9999 BKN040 14/13 Q1025
03:30
V
13 °C 10 km+ 4.000 ft Var Var 2 kt METAR LFSL 030130Z AUTO VRB02KT 9999 OVC040 13/13 Q1025
03:00
V
12 °C 10 km+ 4.000 ft Var Var 2 kt METAR LFSL 030100Z AUTO VRB02KT 9999 BKN040 12/12 Q1026
02:30
V
12 °C 10 km+ 4.200 ft 310° 310° 1 kt METAR LFSL 030030Z AUTO 31001KT 9999 OVC042 12/12 Q1026
02:00
V
12 °C 10 km+ - Var Var 2 kt METAR LFSL 030000Z AUTO VRB02KT 9999 SCT043 12/12 Q1026
01:30
V
13 °C 10 km+ - Var Var 2 kt METAR LFSL 022330Z AUTO VRB02KT CAVOK 13/12 Q1026
01:00
V
13 °C 10 km+ - 300° 300° 3 kt METAR LFSL 022300Z AUTO 30003KT CAVOK 13/12 Q1026
00:30
V
14 °C 10 km+ - Var Var 2 kt METAR LFSL 022230Z AUTO VRB02KT CAVOK 14/12 Q1026
00:00
V
15 °C 10 km+ - 350° 350° 5 kt METAR LFSL 022200Z AUTO 35005KT CAVOK 15/14 Q1026

2 octobre 2022

Temps Code Temps Temp. Vue Base cloud Vent METAR/SPECI
23:30
V
15 °C 10 km+ 4.300 ft Var Var 2 kt METAR LFSL 022130Z AUTO VRB02KT 9999 BKN043 15/14 Q1026
23:00
V
16 °C 10 km+ 4.400 ft 340° 340° 3 kt METAR LFSL 022100Z AUTO 34003KT 9999 OVC044 16/14 Q1026 NOSIG
22:30
V
15 °C 10 km+ 4.400 ft Var Var 2 kt METAR LFSL 022030Z AUTO VRB02KT 9999 OVC044 15/14 Q1026 NOSIG
22:00
V
15 °C 10 km+ 4.500 ft 300° 300° 1 kt METAR LFSL 022000Z AUTO 30001KT 9999 SCT027 SCT039 OVC045 15/14 Q1026 NOSIG
21:30
V
15 °C 10 km+ - Var 000° 0 kt METAR LFSL 021930Z AUTO 00000KT 9999 SCT046 15/14 Q1026 NOSIG
Données plus anciennes

Nous et des tiers suivons ton comportement sur Internet sur notre site Web à l'aide de cookies. Si tu continues, nous supposons que tu acceptes notre politique en matière de cookies. Apprendre plus